Hemlock, Michigan
Current Conditions -  °F | °C
As of 8:53 PM on Sunday 25 Jan 2015 (Local Time) from KMBS Reporting Station
Overcast Overcast  
Wind Chill:   Ceiling: 2100
Heat Index: 19°   Visibility: 10mi
Dew Point: 10°   Wind: 16mph
Humidity: 68%   Direction: 40°NE
Pressure: 30.04"   Gusts: NA
Location:  43.41°N, 84.23°W
Report Text: KMBS 260153Z 04014KT 10SM OVC021 M07/M12 A3004 RMK AO2 SLP186 T10721122
Loading
Personal Weather Stations






























Interactive Weather Map New forecast layout! Learn more

10-Day Weather Forecast

Advertisements
Track Severe Weather on mobile